createdAt,value
2019-03-24T00:04:09.429Z,101407.14
2019-03-24T00:09:11.512Z,101413.00
2019-03-24T00:14:13.767Z,101409.66
2019-03-24T00:19:15.844Z,101402.59
2019-03-24T00:30:18.539Z,101380.99
2019-03-24T00:35:20.627Z,101378.97
2019-03-24T00:40:22.886Z,101374.66
2019-03-24T00:45:24.961Z,101378.50
2019-03-24T00:50:27.049Z,101371.55
2019-03-24T00:55:29.135Z,101370.69
2019-03-24T01:00:42.342Z,101368.09
2019-03-24T01:05:44.953Z,101361.69
2019-03-24T01:10:47.054Z,101355.45
2019-03-24T01:15:49.154Z,101352.00
2019-03-24T01:20:51.239Z,101346.14
2019-03-24T01:25:53.432Z,101350.19
2019-03-24T01:30:55.624Z,101351.28
2019-03-24T01:35:57.806Z,101350.11
2019-03-24T01:40:59.883Z,101349.86
2019-03-24T01:46:01.966Z,101349.50
2019-03-24T01:51:04.154Z,101341.27
2019-03-24T01:56:06.274Z,101346.39
2019-03-24T02:01:08.357Z,101338.03
2019-03-24T02:06:10.437Z,101339.21
2019-03-24T02:11:12.503Z,101338.97
2019-03-24T02:16:14.715Z,101339.17
2019-03-24T02:21:16.803Z,101335.59
2019-03-24T02:26:18.873Z,101325.44
2019-03-24T02:31:21.089Z,101324.37
2019-03-24T02:36:23.302Z,101316.38
2019-03-24T02:41:25.374Z,101312.08
2019-03-24T02:46:27.453Z,101309.45
2019-03-24T02:51:29.533Z,101309.95
2019-03-24T02:56:31.727Z,101313.89
2019-03-24T03:01:33.892Z,101317.83
2019-03-24T03:06:36.198Z,101311.75
2019-03-24T03:11:38.259Z,101307.92
2019-03-24T03:16:40.314Z,101306.39
2019-03-24T03:21:42.571Z,101300.39
2019-03-24T03:26:44.642Z,101294.81
2019-03-24T03:31:46.735Z,101294.95
2019-03-24T03:36:48.801Z,101294.81
2019-03-24T03:41:50.859Z,101299.11
2019-03-24T03:46:53.446Z,101292.19
2019-03-24T03:51:55.613Z,101287.42
2019-03-24T03:56:57.857Z,101285.40
2019-03-24T04:01:59.957Z,101284.44
2019-03-24T04:07:02.048Z,101285.86
2019-03-24T04:12:04.252Z,101285.76
2019-03-24T04:17:08.013Z,101288.28
2019-03-24T04:22:10.270Z,101283.41
2019-03-24T04:27:12.349Z,101287.81
2019-03-24T04:32:14.482Z,101281.60
2019-03-24T04:37:16.605Z,101275.17
2019-03-24T04:42:18.721Z,101272.05
2019-03-24T04:47:21.112Z,101266.33
2019-03-24T04:52:23.198Z,101265.13
2019-03-24T04:57:25.311Z,101264.66
2019-03-24T05:02:27.428Z,101256.28
2019-03-24T05:07:29.739Z,101253.55
2019-03-24T05:12:31.929Z,101249.25
2019-03-24T05:17:34.014Z,101251.42
2019-03-24T05:22:36.120Z,101249.53
2019-03-24T05:27:38.213Z,101248.22
2019-03-24T05:32:40.341Z,101251.42
2019-03-24T05:37:42.420Z,101246.98
2019-03-24T05:42:44.609Z,101244.36
2019-03-24T05:47:46.736Z,101238.74
2019-03-24T05:52:48.852Z,101234.70
2019-03-24T05:57:50.959Z,101235.30
2019-03-24T06:02:53.065Z,101241.38
2019-03-24T06:07:55.319Z,101238.74
2019-03-24T06:12:57.496Z,101235.66
2019-03-24T06:17:59.711Z,101236.47
2019-03-24T06:23:01.911Z,101238.99
2019-03-24T06:28:04.119Z,101244.00
2019-03-24T06:33:06.320Z,101242.86
2019-03-24T06:38:08.606Z,101250.74
2019-03-24T06:43:10.709Z,101247.55
2019-03-24T06:48:12.820Z,101233.80
2019-03-24T06:53:14.962Z,101240.08
2019-03-24T06:58:17.080Z,101236.86
2019-03-24T07:03:19.171Z,101236.04
2019-03-24T07:08:21.263Z,101236.45
2019-03-24T07:13:23.373Z,101231.30
2019-03-24T07:18:25.584Z,101230.70
2019-03-24T07:23:27.800Z,101231.36
2019-03-24T07:28:29.911Z,101219.78
2019-03-24T07:33:32.053Z,101222.05
2019-03-24T07:38:34.185Z,101214.73
2019-03-24T07:43:36.288Z,101220.30
2019-03-24T07:48:38.489Z,101213.93
2019-03-24T07:53:40.699Z,101211.75
2019-03-24T07:58:42.813Z,101210.27
2019-03-24T08:03:45.097Z,101200.41
2019-03-24T08:08:47.463Z,101199.80
2019-03-24T08:13:54.065Z,101192.63
2019-03-24T08:18:53.725Z,101188.98
2019-03-24T08:23:55.953Z,101187.28
2019-03-24T08:28:58.063Z,101186.17
2019-03-24T08:34:00.276Z,101189.45
2019-03-24T08:39:03.940Z,101178.43
2019-03-24T08:44:06.147Z,101176.61
2019-03-24T08:49:08.266Z,101164.90
2019-03-24T08:54:10.495Z,101162.23
2019-03-24T08:59:12.622Z,101156.70
2019-03-24T09:04:14.846Z,101159.72
2019-03-24T09:09:17.058Z,101164.59
2019-03-24T09:14:19.169Z,101164.98
2019-03-24T09:19:21.403Z,101157.53
2019-03-24T09:24:23.620Z,101155.27
2019-03-24T09:29:25.738Z,101150.58
2019-03-24T09:34:27.847Z,101149.94
2019-03-24T09:39:29.962Z,101141.61
2019-03-24T09:44:32.045Z,101147.58
2019-03-24T09:49:34.137Z,101135.22
2019-03-24T09:54:36.223Z,101126.25
2019-03-24T09:59:38.361Z,101114.63
2019-03-24T10:04:40.460Z,101117.95
2019-03-24T10:09:42.559Z,101105.66
2019-03-24T10:14:44.706Z,101097.63
2019-03-24T10:19:46.843Z,101098.57
2019-03-24T10:24:48.950Z,101082.31
2019-03-24T10:29:51.077Z,101075.77
2019-03-24T10:34:53.361Z,101072.32
2019-03-24T10:39:55.473Z,101055.70
2019-03-24T10:44:57.590Z,101053.55
2019-03-24T10:49:59.702Z,101050.87
2019-03-24T10:55:02.040Z,101038.52
2019-03-24T11:00:05.624Z,101039.80
2019-03-24T11:05:08.317Z,101016.88
2019-03-24T11:10:10.536Z,101022.77
2019-03-24T11:15:12.731Z,101025.41
2019-03-24T11:20:14.933Z,101018.97
2019-03-24T11:25:17.058Z,101020.22
2019-03-24T11:30:19.337Z,101010.23
2019-03-24T11:35:21.559Z,101001.97
2019-03-24T11:40:23.784Z,101000.18
2019-03-24T11:45:25.912Z,101003.48
2019-03-24T11:50:28.027Z,101001.83
2019-03-24T11:55:30.152Z,100998.48
2019-03-24T12:00:34.126Z,100997.76
2019-03-24T12:05:36.626Z,100985.58
2019-03-24T12:10:38.853Z,100976.48
2019-03-24T12:15:41.064Z,100971.27
2019-03-24T12:20:43.214Z,100964.55
2019-03-24T12:25:45.404Z,100962.66
2019-03-24T12:30:47.666Z,100956.86
2019-03-24T12:35:49.889Z,100944.61
2019-03-24T12:40:54.647Z,100941.77
2019-03-24T12:45:56.826Z,100928.86
2019-03-24T12:50:59.255Z,100927.58
2019-03-24T12:56:01.439Z,100917.89
2019-03-24T13:01:03.616Z,100913.78
2019-03-24T13:06:05.700Z,100911.53
2019-03-24T13:11:07.876Z,100907.30
2019-03-24T13:16:09.967Z,100901.52
2019-03-24T13:21:12.172Z,100901.11
2019-03-24T13:26:14.280Z,100895.90
2019-03-24T13:31:16.359Z,100899.70
2019-03-24T13:36:18.471Z,100890.59
2019-03-24T13:41:20.605Z,100892.02
2019-03-24T13:46:23.064Z,100884.98
2019-03-24T13:51:25.206Z,100874.65
2019-03-24T13:56:27.341Z,100866.33
2019-03-24T14:01:29.543Z,100859.12
2019-03-24T14:06:31.805Z,100858.16
2019-03-24T14:11:33.920Z,100856.84
2019-03-24T14:16:36.091Z,100856.80
2019-03-24T14:21:38.294Z,100851.32
2019-03-24T14:26:40.376Z,100838.86
2019-03-24T14:31:42.532Z,100833.66
2019-03-24T14:36:44.701Z,100815.34
2019-03-24T14:41:46.819Z,100809.17
2019-03-24T14:46:49.048Z,100799.14
2019-03-24T14:51:51.349Z,100793.04
2019-03-24T14:56:53.520Z,100790.18
2019-03-24T15:01:55.729Z,100779.16
2019-03-24T15:06:57.920Z,100794.35
2019-03-24T15:12:00.216Z,100788.16
2019-03-24T15:17:02.422Z,100791.06
2019-03-24T15:22:04.635Z,100779.58
2019-03-24T15:27:06.758Z,100781.45
2019-03-24T15:32:08.909Z,100784.90
2019-03-24T15:37:11.135Z,100783.86
2019-03-24T15:42:13.256Z,100790.66
2019-03-24T15:47:15.374Z,100796.98
2019-03-24T15:52:17.462Z,100793.88
2019-03-24T15:57:22.155Z,100792.16
2019-03-24T16:02:24.374Z,100795.02
2019-03-24T16:07:26.453Z,100794.41
2019-03-24T16:12:28.666Z,100780.72
2019-03-24T16:17:30.848Z,100772.83
2019-03-24T16:22:33.065Z,100765.26
2019-03-24T16:27:35.223Z,100761.60
2019-03-24T16:32:37.326Z,100768.52
2019-03-24T16:37:39.435Z,100765.89
2019-03-24T16:42:41.555Z,100761.52
2019-03-24T16:47:43.634Z,100760.00
2019-03-24T16:52:45.837Z,100763.55
2019-03-24T16:57:49.841Z,100749.52
2019-03-24T17:02:51.961Z,100749.70
2019-03-24T17:07:54.165Z,100735.76
2019-03-24T17:12:56.408Z,100727.02
2019-03-24T17:17:58.632Z,100720.66
2019-03-24T17:23:00.838Z,100725.30
2019-03-24T17:28:03.115Z,100735.35
2019-03-24T17:33:05.326Z,100723.73
2019-03-24T17:38:07.583Z,100719.25
2019-03-24T17:43:09.724Z,100714.81
2019-03-24T17:48:11.919Z,100714.81
2019-03-24T17:53:14.215Z,100715.04
2019-03-24T17:58:16.334Z,100710.36
2019-03-24T18:03:18.444Z,100706.49
2019-03-24T18:08:20.607Z,100716.47
2019-03-24T18:13:22.746Z,100707.50
2019-03-24T18:18:24.929Z,100705.69
2019-03-24T18:23:27.054Z,100710.39
2019-03-24T18:28:29.153Z,100704.09
2019-03-24T18:33:31.414Z,100711.06
2019-03-24T18:38:33.523Z,100706.06
2019-03-24T18:43:36.911Z,100710.20
2019-03-24T18:48:39.043Z,100707.40
2019-03-24T18:53:41.212Z,100706.05
2019-03-24T18:58:43.331Z,100702.98
2019-03-24T19:03:45.559Z,100699.70
2019-03-24T19:08:47.699Z,100686.72
2019-03-24T19:13:49.797Z,100688.88
2019-03-24T19:18:51.943Z,100692.45
2019-03-24T19:23:55.858Z,100679.35
2019-03-24T19:28:58.150Z,100686.70
2019-03-24T19:34:00.464Z,100683.58
2019-03-24T19:39:04.839Z,100689.22
2019-03-24T19:44:07.049Z,100678.51
2019-03-24T19:49:11.430Z,100668.63
2019-03-24T19:54:13.557Z,100673.72
2019-03-24T19:59:15.685Z,100668.88
2019-03-24T20:04:17.835Z,100666.41
2019-03-24T20:09:20.040Z,100655.69
2019-03-24T20:14:24.059Z,100654.63
2019-03-24T20:19:26.316Z,100649.04
2019-03-24T20:24:28.432Z,100640.32
2019-03-24T20:29:30.560Z,100628.94
2019-03-24T20:34:32.728Z,100621.89
2019-03-24T20:39:34.924Z,100626.06
2019-03-24T20:44:37.204Z,100630.45
2019-03-24T20:49:39.297Z,100634.98
2019-03-24T20:54:41.418Z,100629.09
2019-03-24T20:59:43.512Z,100631.66
2019-03-24T21:04:45.620Z,100623.73
2019-03-24T21:09:47.786Z,100621.38
2019-03-24T21:14:49.992Z,100620.11
2019-03-24T21:19:52.123Z,100616.39
2019-03-24T21:24:54.242Z,100615.94
2019-03-24T21:29:56.372Z,100603.36
2019-03-24T21:34:58.620Z,100598.06
2019-03-24T21:40:00.851Z,100588.84
2019-03-24T21:45:03.812Z,100592.05
2019-03-24T21:50:06.922Z,100580.53
2019-03-24T21:55:09.127Z,100578.20
2019-03-24T22:00:11.441Z,100570.86
2019-03-24T22:05:13.665Z,100573.16
2019-03-24T22:10:15.761Z,100568.70
2019-03-24T22:15:17.849Z,100569.86
2019-03-24T22:20:19.951Z,100572.16
2019-03-24T22:25:22.098Z,100569.19
2019-03-24T22:30:24.367Z,100560.98
2019-03-24T22:35:26.570Z,100557.95
2019-03-24T22:40:28.683Z,100549.69
2019-03-24T22:45:30.827Z,100546.97
2019-03-24T22:50:32.919Z,100541.63
2019-03-24T22:55:35.107Z,100540.99
2019-03-24T23:00:56.180Z,100528.52
2019-03-24T23:05:58.369Z,100524.34
2019-03-24T23:11:00.500Z,100517.81
2019-03-24T23:16:02.719Z,100519.75
2019-03-24T23:21:04.933Z,100512.16
2019-03-24T23:26:07.152Z,100505.80
2019-03-24T23:31:09.340Z,100497.46
2019-03-24T23:36:11.509Z,100494.66
2019-03-24T23:41:14.020Z,100493.49
2019-03-24T23:46:16.107Z,100485.23
2019-03-24T23:51:18.196Z,100480.87
2019-03-24T23:56:20.305Z,100473.42
